Terminal Aerodrome Forecast
Issued by NWS

Home | Current Version | Previous Version | Text Only | Print | Product List | Glossary On
Versions: 1 2 3 4 5 6 7 8 9 10 11 12 13 14 15
000
FTUS43 KDMX 242340
TAFFOD
TAF
KFOD 242340Z 2500/2524 11005KT P6SM SKC
     FM250600 16006KT P6SM VCTS SCT080CB BKN140
     FM251000 14008KT 5SM -TSRA BKN015CB OVC070
     FM251500 17012KT P6SM VCTS OVC040CB
     FM251900 17017KT P6SM OVC080=

USA.gov is the U.S. government's official web portal to all federal, state and local government web resources and services.